Time;durP1;ratioP1;P1;durP2;ratioP2;P2;SDS_P1;SDS_P2;PMS_P1;PMS_P2;Temp;Humidity;BMP_temperature;BMP_pressure;BME280_temperature;BME280_humidity;BME280_pressure;Samples;Min_cycle;Max_cycle;Signal;HPM_P1;HPM_P2
2021/05/05 00:01:54;;;;;;;3.53;0.60;;;7.90;83.10;;;;;;4955224;29;20378;-85
2021/05/05 00:04:29;;;;;;;1.25;0.43;;;7.90;83.00;;;;;;4972684;28;20043;-84
2021/05/05 00:06:58;;;;;;;2.72;0.35;;;7.80;83.20;;;;;;4957721;28;20051;-85
2021/05/05 00:09:27;;;;;;;1.02;0.68;;;7.80;83.30;;;;;;4957423;28;20047;-82
2021/05/05 00:11:55;;;;;;;2.08;0.60;;;7.80;83.20;;;;;;4972614;28;20479;-87
2021/05/05 00:14:22;;;;;;;2.05;0.50;;;7.70;83.50;;;;;;4976281;28;20115;-86
2021/05/05 00:16:50;;;;;;;1.50;0.60;;;7.70;83.60;;;;;;4927719;29;20051;-87
2021/05/05 00:19:19;;;;;;;3.33;0.90;;;7.60;83.80;;;;;;4959041;28;20050;-87
2021/05/05 00:21:46;;;;;;;1.60;0.70;;;7.60;83.80;;;;;;4959248;28;20034;-87
2021/05/05 00:24:14;;;;;;;2.00;0.68;;;7.60;83.90;;;;;;4957235;28;20051;-87
2021/05/05 00:26:42;;;;;;;2.08;0.70;;;7.60;83.90;;;;;;4959278;28;20063;-86
2021/05/05 00:29:10;;;;;;;1.48;0.70;;;7.50;84.20;;;;;;4956222;28;20355;-85
2021/05/05 00:31:37;;;;;;;0.93;0.43;;;7.50;84.20;;;;;;4958168;28;20055;-86
2021/05/05 00:34:07;;;;;;;3.33;0.70;;;7.60;84.00;;;;;;4954236;28;20079;-85
2021/05/05 00:36:35;;;;;;;3.75;0.70;;;7.60;83.80;;;;;;4957773;28;20361;-88
2021/05/05 00:39:03;;;;;;;2.58;1.10;;;7.50;84.00;;;;;;4958064;28;20050;-86
2021/05/05 00:41:30;;;;;;;1.75;0.65;;;7.40;84.40;;;;;;4957257;28;20066;-86
2021/05/05 00:43:58;;;;;;;4.00;1.33;;;7.40;84.60;;;;;;4956759;28;20074;-87
2021/05/05 00:46:26;;;;;;;3.38;0.75;;;7.30;84.80;;;;;;4971569;28;20047;-87
2021/05/05 00:48:53;;;;;;;1.70;0.32;;;7.30;84.80;;;;;;4955445;28;20067;-87
2021/05/05 00:51:21;;;;;;;4.13;1.52;;;7.30;84.80;;;;;;4954052;28;20089;-87
2021/05/05 00:53:48;;;;;;;2.55;0.80;;;7.20;84.70;;;;;;4959724;28;20066;-85
2021/05/05 00:56:16;;;;;;;3.92;1.02;;;7.20;84.70;;;;;;4959503;28;20055;-86
2021/05/05 00:58:43;;;;;;;1.63;1.02;;;7.20;84.60;;;;;;4953897;28;20055;-88
2021/05/05 01:01:10;;;;;;;2.22;0.40;;;7.20;84.40;;;;;;4952152;28;20062;-87
2021/05/05 01:03:39;;;;;;;1.55;0.43;;;7.30;83.90;;;;;;4926231;29;20106;-85
2021/05/05 01:06:06;;;;;;;1.13;0.30;;;7.30;83.60;;;;;;4956698;28;20067;-85
2021/05/05 01:08:34;;;;;;;0.90;0.40;;;7.40;83.50;;;;;;4965165;28;20056;-85
2021/05/05 01:11:03;;;;;;;0.70;0.30;;;7.40;83.40;;;;;;4947447;29;20066;-87
2021/05/05 01:13:33;;;;;;;2.00;0.73;;;7.50;83.20;;;;;;4956213;28;20829;-84
2021/05/05 01:16:00;;;;;;;1.95;0.50;;;7.60;82.70;;;;;;4954060;28;20090;-87
2021/05/05 01:18:29;;;;;;;5.97;1.17;;;7.60;82.70;;;;;;4968369;28;20360;-86
2021/05/05 01:21:00;;;;;;;3.63;0.38;;;7.70;82.10;;;;;;4954085;29;20048;-87
2021/05/05 01:23:30;;;;;;;1.52;0.40;;;7.70;82.10;;;;;;4954403;28;20050;-85
2021/05/05 01:25:57;;;;;;;4.13;0.50;;;7.80;81.80;;;;;;4952644;28;20386;-85
2021/05/05 01:28:25;;;;;;;2.22;0.70;;;7.90;81.70;;;;;;4952096;28;20066;-87
2021/05/05 01:30:53;;;;;;;2.10;0.50;;;7.90;81.50;;;;;;4960148;28;20051;-85
2021/05/05 01:33:21;;;;;;;1.65;0.20;;;7.90;81.40;;;;;;4959005;28;20051;-84
2021/05/05 01:35:50;;;;;;;1.13;0.50;;;7.90;81.40;;;;;;4959247;29;20128;-86
2021/05/05 01:38:19;;;;;;;1.45;0.40;;;7.90;81.30;;;;;;4939706;28;20060;-87
2021/05/05 01:40:48;;;;;;;1.75;0.80;;;7.90;81.20;;;;;;4959037;28;20343;-86
2021/05/05 01:43:16;;;;;;;0.88;0.45;;;7.90;81.20;;;;;;4956188;28;20067;-85
2021/05/05 01:45:43;;;;;;;1.98;0.88;;;7.90;81.10;;;;;;4950354;28;20060;-87
2021/05/05 01:48:11;;;;;;;5.53;0.88;;;8.00;81.20;;;;;;4958608;28;20109;-87
2021/05/05 01:50:39;;;;;;;2.35;0.38;;;8.00;80.90;;;;;;4957387;28;20060;-87
2021/05/05 01:53:07;;;;;;;5.70;0.95;;;8.00;81.00;;;;;;4926183;28;20047;-87
2021/05/05 01:55:37;;;;;;;1.30;0.60;;;7.80;81.30;;;;;;4937881;29;20050;-86
2021/05/05 01:58:08;;;;;;;1.23;0.45;;;7.80;81.40;;;;;;4972646;28;20111;-87
2021/05/05 02:00:37;;;;;;;2.15;0.35;;;7.70;81.70;;;;;;4935290;29;20080;-85
2021/05/05 02:03:07;;;;;;;1.30;0.50;;;7.70;82.00;;;;;;4947628;28;20057;-83
2021/05/05 02:05:39;;;;;;;2.22;0.68;;;7.70;82.20;;;;;;4942235;29;20051;-86
2021/05/05 02:08:15;;;;;;;1.65;0.40;;;7.70;82.30;;;;;;4955802;28;20054;-83
2021/05/05 02:10:45;;;;;;;2.90;0.60;;;7.60;82.80;;;;;;4930920;29;20122;-83
2021/05/05 02:13:13;;;;;;;;;;;7.60;82.80;;;;;;4958433;28;20047;-86
2021/05/05 02:15:41;;;;;;;0.82;0.40;;;7.50;83.10;;;;;;4928797;29;20029;-86
2021/05/05 02:18:11;;;;;;;3.65;0.77;;;7.50;83.10;;;;;;4959173;28;20080;-84
2021/05/05 02:20:40;;;;;;;9.52;0.90;;;7.40;83.30;;;;;;4945783;29;20044;-85
2021/05/05 02:23:12;;;;;;;0.45;0.32;;;7.40;83.60;;;;;;4946512;28;20054;-86
2021/05/05 02:25:39;;;;;;;2.95;1.05;;;7.50;83.60;;;;;;4976645;28;20232;-87
2021/05/05 02:28:11;;;;;;;1.98;0.80;;;7.50;83.30;;;;;;4954258;29;20090;-86
2021/05/05 02:31:05;;;;;;;2.05;0.40;;;7.50;83.50;;;;;;4952236;28;20055;-85
2021/05/05 02:33:34;;;;;;;3.35;0.52;;;7.40;83.60;;;;;;4957796;28;20052;-84
2021/05/05 02:36:04;;;;;;;3.72;0.85;;;7.40;83.90;;;;;;4956281;28;20051;-83
2021/05/05 02:38:31;;;;;;;3.20;0.43;;;7.40;83.90;;;;;;4952815;28;20039;-85
2021/05/05 02:40:59;;;;;;;1.83;0.40;;;7.30;84.30;;;;;;4956563;29;20051;-86
2021/05/05 02:43:28;;;;;;;3.38;0.57;;;7.20;84.40;;;;;;4941147;29;20968;-86
2021/05/05 02:45:55;;;;;;;1.83;0.60;;;7.40;84.10;;;;;;4960603;28;20120;-86
2021/05/05 02:48:22;;;;;;;2.50;0.50;;;7.30;84.10;;;;;;4959972;28;20063;-86
2021/05/05 02:50:51;;;;;;;2.05;0.57;;;7.30;84.20;;;;;;4956053;29;20214;-86
2021/05/05 02:53:18;;;;;;;2.08;0.65;;;7.20;84.30;;;;;;4957580;28;20056;-86
2021/05/05 02:55:45;;;;;;;4.30;0.80;;;7.30;83.80;;;;;;4975108;28;20063;-87
2021/05/05 02:58:13;;;;;;;1.92;0.45;;;7.40;83.50;;;;;;4941075;28;20048;-85
2021/05/05 03:00:40;;;;;;;2.08;0.50;;;7.30;83.70;;;;;;4950468;28;20051;-86
2021/05/05 03:03:08;;;;;;;2.35;0.35;;;7.30;83.80;;;;;;4960227;28;20051;-86
2021/05/05 03:05:35;;;;;;;2.65;0.50;;;7.30;83.60;;;;;;4958139;28;20054;-87
2021/05/05 03:08:03;;;;;;;1.33;0.55;;;7.20;83.80;;;;;;4951092;28;20070;-83
2021/05/05 03:10:31;;;;;;;1.40;0.50;;;7.30;83.40;;;;;;4956041;28;20406;-85
2021/05/05 03:12:58;;;;;;;1.15;0.60;;;7.30;83.30;;;;;;4965955;28;20051;-84
2021/05/05 03:15:25;;;;;;;3.22;0.75;;;7.30;83.30;;;;;;4948577;28;20055;-85
2021/05/05 03:17:54;;;;;;;5.85;0.65;;;7.30;83.20;;;;;;4944773;29;20051;-85
2021/05/05 03:20:21;;;;;;;3.05;0.88;;;7.30;83.00;;;;;;4943986;28;20070;-86
2021/05/05 03:22:48;;;;;;;4.85;1.00;;;7.30;83.00;;;;;;4952199;28;20059;-85
2021/05/05 03:25:15;;;;;;;0.85;0.38;;;7.20;83.30;;;;;;4927354;28;20055;-89
2021/05/05 03:27:42;;;;;;;0.77;0.35;;;7.20;83.40;;;;;;4950544;28;20595;-84
2021/05/05 03:30:10;;;;;;;6.70;0.88;;;7.20;83.10;;;;;;4953369;28;20373;-85
2021/05/05 03:32:37;;;;;;;1.85;0.57;;;7.10;83.20;;;;;;4957335;29;20090;-86
2021/05/05 03:35:08;;;;;;;3.00;0.60;;;7.10;83.10;;;;;;4953064;28;20055;-87
2021/05/05 03:37:35;;;;;;;2.90;1.13;;;7.00;83.00;;;;;;4958076;28;20071;-83
2021/05/05 03:40:04;;;;;;;7.03;0.55;;;7.00;82.30;;;;;;4948315;28;20043;-84
2021/05/05 03:42:31;;;;;;;3.83;0.60;;;7.00;82.00;;;;;;4948615;28;20050;-87
2021/05/05 03:44:58;;;;;;;1.25;0.40;;;6.90;82.10;;;;;;4947313;29;20099;-86
2021/05/05 03:47:25;;;;;;;2.92;1.60;;;6.80;81.80;;;;;;4950250;28;20062;-83
2021/05/05 03:49:53;;;;;;;1.30;0.40;;;6.80;81.40;;;;;;4953217;28;20047;-85
2021/05/05 03:52:21;;;;;;;2.55;0.40;;;6.70;81.60;;;;;;4947463;29;20091;-84
2021/05/05 03:54:48;;;;;;;3.03;0.85;;;6.70;81.40;;;;;;4948302;28;20074;-84
2021/05/05 03:57:15;;;;;;;1.98;0.68;;;6.70;81.50;;;;;;4951728;28;20063;-85
2021/05/05 03:59:42;;;;;;;1.75;0.43;;;6.60;81.70;;;;;;4958996;28;20510;-85
2021/05/05 04:02:09;;;;;;;2.58;0.30;;;6.60;81.70;;;;;;4946053;28;20044;-86
2021/05/05 04:04:36;;;;;;;1.75;0.57;;;6.60;81.60;;;;;;4965606;28;20052;-85
2021/05/05 04:07:03;;;;;;;5.03;0.52;;;6.50;81.90;;;;;;4964111;28;20058;-84
2021/05/05 04:09:31;;;;;;;1.10;0.50;;;6.50;82.00;;;;;;4949839;28;20047;-84
2021/05/05 04:11:59;;;;;;;3.13;0.60;;;6.40;82.30;;;;;;4950161;28;20106;-85
2021/05/05 04:14:26;;;;;;;1.65;0.30;;;6.40;82.20;;;;;;4948639;28;20048;-85
2021/05/05 04:16:55;;;;;;;7.20;0.75;;;6.40;82.30;;;;;;4952372;28;20039;-86
2021/05/05 04:19:22;;;;;;;1.42;0.50;;;6.40;82.20;;;;;;4948824;28;20417;-87
2021/05/05 04:21:50;;;;;;;2.00;0.70;;;6.40;82.20;;;;;;4949764;29;20031;-86
2021/05/05 04:24:17;;;;;;;3.00;0.40;;;6.40;82.20;;;;;;4925499;28;20063;-82
2021/05/05 04:26:49;;;;;;;3.90;0.80;;;6.40;82.40;;;;;;4948179;28;20140;-83
2021/05/05 04:29:18;;;;;;;1.13;0.50;;;6.50;82.00;;;;;;4931373;28;20047;-85
2021/05/05 04:31:46;;;;;;;1.52;0.73;;;6.40;82.10;;;;;;4958256;28;20047;-87
2021/05/05 04:34:13;;;;;;;3.42;1.48;;;6.50;81.50;;;;;;4948770;28;20354;-85
2021/05/05 04:36:40;;;;;;;4.13;0.60;;;6.50;81.50;;;;;;4949171;29;20051;-84
2021/05/05 04:39:08;;;;;;;1.85;0.43;;;6.60;81.30;;;;;;4947148;28;20055;-84
2021/05/05 04:41:36;;;;;;;2.10;0.73;;;6.50;81.30;;;;;;4949210;28;20083;-85
2021/05/05 04:44:04;;;;;;;1.40;0.40;;;6.60;80.90;;;;;;4942733;28;20043;-85
2021/05/05 04:46:32;;;;;;;3.45;1.02;;;6.60;80.90;;;;;;4939013;29;20377;-85
2021/05/05 04:48:59;;;;;;;3.00;0.68;;;6.60;80.50;;;;;;4950060;28;20054;-85
2021/05/05 04:51:26;;;;;;;3.63;0.63;;;6.70;80.10;;;;;;4946323;28;20063;-85
2021/05/05 04:53:53;;;;;;;4.97;0.80;;;6.70;79.80;;;;;;4946264;28;20283;-85
2021/05/05 04:56:20;;;;;;;3.40;0.68;;;6.60;79.50;;;;;;4948524;28;20390;-85
2021/05/05 04:58:48;;;;;;;1.90;0.55;;;6.70;79.70;;;;;;4949041;28;20059;-84
2021/05/05 05:01:16;;;;;;;4.75;0.88;;;6.70;79.20;;;;;;4944177;28;20079;-86
2021/05/05 05:03:43;;;;;;;3.70;0.85;;;6.80;78.20;;;;;;4955890;28;20043;-83
2021/05/05 05:06:12;;;;;;;3.58;0.65;;;6.70;78.10;;;;;;4949553;28;20047;-87
2021/05/05 05:08:41;;;;;;;1.23;0.50;;;6.80;78.00;;;;;;4945532;29;20112;-86
2021/05/05 05:11:08;;;;;;;2.95;0.50;;;6.70;77.70;;;;;;4931804;29;20135;-85
2021/05/05 05:13:35;;;;;;;2.65;0.50;;;6.80;77.30;;;;;;4929813;29;20091;-86
2021/05/05 05:16:09;;;;;;;3.88;0.85;;;6.70;77.40;;;;;;4949784;28;20059;-87
2021/05/05 05:18:40;;;;;;;2.15;0.82;;;6.70;77.00;;;;;;4952786;28;20566;-86
2021/05/05 05:21:07;;;;;;;2.67;0.73;;;6.80;76.80;;;;;;4947255;28;20251;-85
2021/05/05 05:23:35;;;;;;;4.45;0.98;;;6.90;76.30;;;;;;4941684;29;20056;-85
2021/05/05 05:26:03;;;;;;;3.13;0.50;;;6.90;75.60;;;;;;4943426;29;20061;-85
2021/05/05 05:28:30;;;;;;;4.15;0.45;;;6.90;75.50;;;;;;4945329;28;20052;-85
2021/05/05 05:30:58;;;;;;;1.95;0.60;;;7.00;75.10;;;;;;4925450;29;20071;-86
2021/05/05 05:33:25;;;;;;;1.00;0.47;;;7.10;74.30;;;;;;4946518;29;20043;-83
2021/05/05 05:35:55;;;;;;;2.75;0.60;;;7.20;74.00;;;;;;4938347;29;20087;-86
2021/05/05 05:38:22;;;;;;;3.10;1.17;;;7.30;73.60;;;;;;4940285;29;20055;-86
2021/05/05 05:40:49;;;;;;;3.25;0.73;;;7.40;73.10;;;;;;4948697;28;20043;-86
2021/05/05 05:43:19;;;;;;;1.70;0.63;;;7.70;72.30;;;;;;4949145;28;20051;-83
2021/05/05 05:45:46;;;;;;;2.38;0.80;;;7.70;71.10;;;;;;4947152;29;20047;-85
2021/05/05 05:48:14;;;;;;;1.83;0.63;;;7.70;70.60;;;;;;4937849;28;20048;-84
2021/05/05 05:50:41;;;;;;;8.80;1.20;;;7.70;69.90;;;;;;4948167;28;20056;-86
2021/05/05 05:53:11;;;;;;;1.85;0.65;;;7.60;70.30;;;;;;4964743;28;20062;-86
2021/05/05 05:55:41;;;;;;;3.72;0.95;;;7.60;70.10;;;;;;4956757;28;20096;-84
2021/05/05 05:58:08;;;;;;;3.63;1.10;;;7.60;69.70;;;;;;4948060;28;20307;-84
2021/05/05 06:00:38;;;;;;;7.85;1.30;;;7.70;69.80;;;;;;4956003;28;20051;-85
2021/05/05 06:03:06;;;;;;;2.27;0.57;;;7.70;69.40;;;;;;4938090;29;20086;-87
2021/05/05 06:05:34;;;;;;;3.08;1.33;;;7.80;69.20;;;;;;4946086;29;20238;-84
2021/05/05 06:08:02;;;;;;;3.03;0.85;;;7.90;68.60;;;;;;4939167;29;20067;-85
2021/05/05 06:10:32;;;;;;;2.35;0.77;;;7.90;68.40;;;;;;4948303;29;20155;-85
2021/05/05 06:13:04;;;;;;;2.20;0.60;;;8.00;67.80;;;;;;4931708;29;20439;-87
2021/05/05 06:15:31;;;;;;;6.10;0.98;;;8.00;67.20;;;;;;4945383;28;21437;-83
2021/05/05 06:17:58;;;;;;;4.53;0.80;;;8.00;67.30;;;;;;4946508;28;20150;-84
2021/05/05 06:20:26;;;;;;;3.17;1.10;;;8.10;67.40;;;;;;4955545;28;20051;-85
2021/05/05 06:22:53;;;;;;;4.47;1.27;;;8.10;66.70;;;;;;4939919;29;20047;-84
2021/05/05 06:25:20;;;;;;;1.48;0.57;;;8.20;66.70;;;;;;4929837;28;20059;-85
2021/05/05 06:27:48;;;;;;;8.00;1.20;;;8.30;66.30;;;;;;4945422;28;20081;-86
2021/05/05 06:30:17;;;;;;;4.25;1.13;;;8.40;65.40;;;;;;4946217;28;20359;-86
2021/05/05 06:32:44;;;;;;;3.03;0.63;;;8.50;64.90;;;;;;4941861;29;20056;-85
2021/05/05 06:35:12;;;;;;;4.68;0.80;;;8.70;64.90;;;;;;4923469;28;20048;-85
2021/05/05 06:37:39;;;;;;;5.13;0.70;;;8.90;63.50;;;;;;4947901;28;20063;-85
2021/05/05 06:40:08;;;;;;;3.40;1.20;;;9.10;63.10;;;;;;4947516;28;20067;-86
2021/05/05 06:42:35;;;;;;;5.10;0.98;;;9.20;62.10;;;;;;4949469;29;20347;-83
2021/05/05 06:45:06;;;;;;;3.90;1.33;;;9.20;61.70;;;;;;4948098;28;20051;-85
2021/05/05 06:47:33;;;;;;;3.45;0.80;;;9.20;62.40;;;;;;4942767;28;20139;-84
2021/05/05 06:50:03;;;;;;;3.05;0.90;;;9.20;61.40;;;;;;4949542;28;20058;-85
2021/05/05 06:52:31;;;;;;;6.55;0.77;;;9.40;61.70;;;;;;4956394;29;20343;-86
2021/05/05 06:54:58;;;;;;;5.13;0.85;;;9.40;61.60;;;;;;4952722;28;20251;-85
2021/05/05 06:57:25;;;;;;;7.55;1.10;;;9.40;61.40;;;;;;4958820;28;20223;-85
2021/05/05 06:59:53;;;;;;;3.03;0.80;;;9.40;60.90;;;;;;4949145;28;20143;-86
2021/05/05 07:02:21;;;;;;;3.75;0.73;;;9.50;61.20;;;;;;4948324;28;20079;-85
2021/05/05 07:04:50;;;;;;;4.75;0.77;;;9.70;62.10;;;;;;4962998;28;20046;-85
2021/05/05 07:07:17;;;;;;;6.95;0.57;;;9.80;60.50;;;;;;4947648;28;20044;-85
2021/05/05 07:09:44;;;;;;;7.13;1.15;;;10.00;60.60;;;;;;4949940;28;20208;-88
2021/05/05 07:12:11;;;;;;;5.15;0.88;;;9.80;59.70;;;;;;4936773;28;20227;-84
2021/05/05 07:14:38;;;;;;;2.42;0.70;;;9.70;60.10;;;;;;4947906;29;20048;-86
2021/05/05 07:17:06;;;;;;;2.70;0.47;;;10.00;59.60;;;;;;4950041;28;20067;-85
2021/05/05 07:19:34;;;;;;;4.95;0.75;;;9.80;59.80;;;;;;4957144;28;20160;-85
2021/05/05 07:22:01;;;;;;;6.00;0.73;;;10.10;58.90;;;;;;4939687;29;20054;-84
2021/05/05 07:24:30;;;;;;;2.53;0.60;;;10.10;59.80;;;;;;4966141;28;20568;-85
2021/05/05 07:26:57;;;;;;;3.33;0.60;;;10.20;59.50;;;;;;4947556;28;20055;-83
2021/05/05 07:29:24;;;;;;;4.82;0.52;;;10.10;59.90;;;;;;4933281;28;20175;-85
2021/05/05 07:31:51;;;;;;;2.25;0.75;;;10.10;58.60;;;;;;4949724;28;20047;-83
2021/05/05 07:34:19;;;;;;;8.27;1.38;;;10.20;58.70;;;;;;4941798;28;20048;-85
2021/05/05 07:36:48;;;;;;;2.80;0.68;;;10.20;58.10;;;;;;4967278;28;20055;-84
2021/05/05 07:45:12;;;;;;;6.70;1.45;;;10.00;59.10;;;;;;4951157;29;20047;-84
2021/05/05 07:47:41;;;;;;;6.85;1.58;;;10.00;59.40;;;;;;4941012;29;20492;-84
2021/05/05 07:50:12;;;;;;;1.73;0.77;;;9.90;59.20;;;;;;4943225;28;20043;-86
2021/05/05 07:52:40;;;;;;;;;;;10.00;58.60;;;;;;4951211;28;20043;-85
2021/05/05 07:55:08;;;;;;;3.55;1.10;;;10.20;59.10;;;;;;4966458;28;19934;-85
2021/05/05 07:57:35;;;;;;;7.63;1.55;;;10.60;58.60;;;;;;4943672;29;20040;-86
2021/05/05 08:00:04;;;;;;;3.35;0.73;;;10.80;57.10;;;;;;4935599;28;20087;-84
2021/05/05 08:02:39;;;;;;;4.57;2.03;;;10.60;56.90;;;;;;4953137;28;20111;-86
2021/05/05 08:05:07;;;;;;;4.90;1.98;;;10.40;57.30;;;;;;4952803;28;20075;-83
2021/05/05 08:07:36;;;;;;;;;;;10.00;58.70;;;;;;4947085;28;20059;-83
2021/05/05 08:10:06;;;;;;;3.13;1.30;;;9.60;59.30;;;;;;4954502;28;20126;-86
2021/05/05 08:12:33;;;;;;;7.35;0.88;;;9.40;60.00;;;;;;4965888;28;20051;-85
2021/05/05 08:15:01;;;;;;;4.95;1.75;;;9.60;60.10;;;;;;4955035;28;20444;-87
2021/05/05 08:17:30;;;;;;;4.33;1.17;;;9.50;60.70;;;;;;4936124;29;20850;-85
2021/05/05 08:19:58;;;;;;;6.95;1.17;;;9.70;60.90;;;;;;4958937;28;20394;-86
2021/05/05 08:22:25;;;;;;;6.22;0.85;;;9.60;59.70;;;;;;4937207;28;20429;-84
2021/05/05 08:24:52;;;;;;;4.57;0.98;;;9.50;59.80;;;;;;4949704;28;20371;-86
2021/05/05 08:27:22;;;;;;;5.85;1.40;;;9.10;63.40;;;;;;4950231;28;20063;-86
2021/05/05 08:29:49;;;;;;;5.28;1.38;;;8.60;65.70;;;;;;4928961;29;20043;-84
2021/05/05 08:32:16;;;;;;;3.83;1.40;;;8.20;68.10;;;;;;4950377;28;20178;-86
2021/05/05 08:34:43;;;;;;;1.88;0.88;;;8.00;68.70;;;;;;4966105;28;20059;-84
2021/05/05 08:37:10;;;;;;;1.25;0.73;;;8.00;68.80;;;;;;4949512;28;20052;-85
2021/05/05 08:39:38;;;;;;;2.15;0.80;;;8.00;69.50;;;;;;4940822;29;20253;-86
2021/05/05 08:42:06;;;;;;;4.60;1.42;;;8.00;70.80;;;;;;4948570;28;20054;-84
2021/05/05 08:44:35;;;;;;;5.90;1.15;;;7.90;73.40;;;;;;4947515;29;20040;-86
2021/05/05 08:47:03;;;;;;;2.70;0.93;;;7.80;80.90;;;;;;4948716;28;20101;-83
2021/05/05 08:49:32;;;;;;;5.40;1.25;;;7.70;81.50;;;;;;4966656;28;20051;-83
2021/05/05 08:52:00;;;;;;;9.43;1.38;;;7.80;78.60;;;;;;4954902;29;20081;-84
2021/05/05 08:54:28;;;;;;;4.05;1.00;;;7.90;77.30;;;;;;4947520;29;20044;-85
2021/05/05 08:56:55;;;;;;;5.65;1.52;;;8.20;78.60;;;;;;4948395;28;20078;-85
2021/05/05 08:59:22;;;;;;;4.82;1.48;;;8.50;71.90;;;;;;4943745;28;20111;-84
2021/05/05 09:01:50;;;;;;;2.40;0.85;;;8.70;72.30;;;;;;4947614;28;20094;-83
2021/05/05 09:04:17;;;;;;;3.42;1.30;;;8.90;69.40;;;;;;4947734;28;20177;-85
2021/05/05 09:06:47;;;;;;;4.60;1.13;;;9.20;68.60;;;;;;4950645;28;20055;-84
2021/05/05 09:09:38;;;;;;;4.38;1.55;;;9.40;67.20;;;;;;4944591;28;20051;-84
2021/05/05 09:12:14;;;;;;;2.35;1.40;;;9.40;63.60;;;;;;4950120;28;20051;-82
2021/05/05 09:14:59;;;;;;;4.97;1.77;;;9.70;62.90;;;;;;4937027;29;20083;-85
2021/05/05 09:17:32;;;;;;;6.65;2.67;;;10.10;61.10;;;;;;4955539;28;20055;-86
2021/05/05 09:20:23;;;;;;;2.83;1.00;;;10.60;57.70;;;;;;4939300;29;21291;-86
2021/05/05 09:22:54;;;;;;;4.78;1.13;;;10.90;55.40;;;;;;4935696;29;20052;-86
2021/05/05 09:25:26;;;;;;;6.18;1.65;;;10.70;56.00;;;;;;4942842;28;20131;-87
2021/05/05 09:28:25;;;;;;;2.42;1.27;;;10.70;55.80;;;;;;4927147;29;20065;-84
2021/05/05 09:30:54;;;;;;;6.45;2.05;;;10.50;55.50;;;;;;4901021;29;20448;-85
2021/05/05 09:33:28;;;;;;;3.28;0.85;;;10.40;55.30;;;;;;4946948;28;20332;-84
2021/05/05 09:35:58;;;;;;;5.10;1.20;;;10.60;56.70;;;;;;4926421;29;20047;-84
2021/05/05 09:38:40;;;;;;;4.65;0.95;;;10.70;56.10;;;;;;4966298;28;20047;-85
2021/05/05 09:41:07;;;;;;;3.15;1.20;;;11.10;55.00;;;;;;4935551;29;20488;-86
2021/05/05 09:43:36;;;;;;;5.25;1.05;;;11.30;52.50;;;;;;4932226;29;20055;-86
2021/05/05 09:46:03;;;;;;;4.03;0.88;;;11.20;53.30;;;;;;4952589;28;20055;-86
2021/05/05 09:48:31;;;;;;;3.70;1.27;;;11.30;52.70;;;;;;4970060;28;20047;-85
2021/05/05 09:51:00;;;;;;;2.90;0.93;;;11.10;51.80;;;;;;4954466;28;20070;-84
2021/05/05 09:53:32;;;;;;;3.22;1.35;;;11.10;50.50;;;;;;4956062;28;20322;-85
2021/05/05 09:56:12;;;;;;;0.68;0.40;;;11.20;49.90;;;;;;4954547;29;20154;-84
2021/05/05 09:58:41;;;;;;;4.30;0.70;;;11.60;47.00;;;;;;4942303;29;20050;-85
2021/05/05 10:01:20;;;;;;;1.98;0.65;;;12.20;45.20;;;;;;4949402;28;20193;-85
2021/05/05 10:03:52;;;;;;;3.95;0.63;;;13.20;44.90;;;;;;4952718;28;20070;-85
2021/05/05 10:06:27;;;;;;;2.65;1.10;;;13.40;43.50;;;;;;4953033;28;20223;-85
2021/05/05 10:08:56;;;;;;;5.55;0.90;;;12.40;45.00;;;;;;4952230;29;20059;-85
2021/05/05 10:11:26;;;;;;;2.53;0.77;;;11.40;52.00;;;;;;4945749;28;20067;-86
2021/05/05 10:13:55;;;;;;;3.42;0.85;;;10.60;55.50;;;;;;4952899;28;20062;-84
2021/05/05 10:16:23;;;;;;;3.03;1.05;;;9.90;61.30;;;;;;4970440;28;20063;-84
2021/05/05 10:18:52;;;;;;;9.02;0.65;;;8.70;71.40;;;;;;4951085;29;20055;-86
2021/05/05 10:21:23;;;;;;;0.90;0.28;;;6.80;85.80;;;;;;4956888;28;20418;-86
2021/05/05 10:23:51;;;;;;;0.75;0.38;;;6.10;89.40;;;;;;4953556;28;20055;-87
2021/05/05 10:26:22;;;;;;;1.27;0.35;;;6.20;91.80;;;;;;4951833;28;20051;-86
2021/05/05 10:28:50;;;;;;;1.52;0.20;;;6.70;91.10;;;;;;4969793;28;20347;-85
2021/05/05 10:31:20;;;;;;;0.80;0.17;;;6.80;90.90;;;;;;4939729;29;20048;-86
2021/05/05 10:33:50;;;;;;;0.88;0.32;;;6.60;87.00;;;;;;4944228;29;20238;-85
2021/05/05 10:36:35;;;;;;;0.40;0.10;;;6.70;89.10;;;;;;4948620;28;20048;-87
2021/05/05 10:39:22;;;;;;;0.38;0.30;;;6.60;86.10;;;;;;4942434;29;20051;-86
2021/05/05 10:42:02;;;;;;;0.35;0.20;;;6.60;87.20;;;;;;4952086;28;20408;-85
2021/05/05 10:44:37;;;;;;;0.22;0.20;;;7.00;88.50;;;;;;4959030;28;20051;-85
2021/05/05 10:47:18;;;;;;;1.17;0.25;;;7.70;81.20;;;;;;4960875;28;20069;-86
2021/05/05 10:50:16;;;;;;;0.82;0.20;;;9.90;75.00;;;;;;4970528;28;20342;-84
2021/05/05 10:53:11;;;;;;;0.65;0.30;;;12.60;66.20;;;;;;4954086;28;20550;-86
2021/05/05 10:55:47;;;;;;;0.93;0.50;;;14.10;62.60;;;;;;4910294;29;20114;-87
2021/05/05 10:58:24;;;;;;;1.75;0.28;;;13.90;58.80;;;;;;4942324;28;20051;-86
2021/05/05 11:00:59;;;;;;;3.00;0.52;;;13.90;58.80;;;;;;4957910;28;20054;-87
2021/05/05 11:04:03;;;;;;;2.22;0.30;;;15.40;51.30;;;;;;4959058;28;20047;-86
2021/05/05 11:06:53;;;;;;;0.55;0.28;;;14.20;56.50;;;;;;4960245;28;20348;-86
2021/05/05 11:09:46;;;;;;;2.47;0.40;;;16.40;50.20;;;;;;4960324;28;20054;-86
2021/05/05 11:12:47;;;;;;;1.10;0.40;;;14.50;50.30;;;;;;4927403;28;20066;-86
2021/05/05 11:15:16;;;;;;;0.95;0.40;;;14.10;48.20;;;;;;4960242;28;20047;-88
2021/05/05 11:17:44;;;;;;;1.02;0.30;;;14.10;50.70;;;;;;4961646;28;20054;-85
2021/05/05 11:20:31;;;;;;;1.23;0.40;;;14.30;50.50;;;;;;4926460;28;20066;-86
2021/05/05 11:22:59;;;;;;;0.55;0.32;;;15.40;47.60;;;;;;4956067;28;20078;-86
2021/05/05 11:25:28;;;;;;;0.65;0.20;;;15.40;47.10;;;;;;4957144;28;20052;-87
2021/05/05 11:27:59;;;;;;;0.57;0.28;;;15.80;43.10;;;;;;4958471;28;20048;-86
2021/05/05 11:30:49;;;;;;;0.60;0.20;;;13.90;46.50;;;;;;4965310;28;20057;-87
2021/05/05 11:33:17;;;;;;;;;;;14.50;43.40;;;;;;4942168;28;20047;-87
2021/05/05 11:35:46;;;;;;;0.60;0.35;;;15.70;41.60;;;;;;4956691;28;20158;-86
2021/05/05 11:38:23;;;;;;;2.42;0.25;;;18.40;36.20;;;;;;4960607;28;20119;-87
2021/05/05 11:40:56;;;;;;;0.65;0.32;;;20.10;35.20;;;;;;4953680;29;20043;-85
2021/05/05 11:43:24;;;;;;;0.77;0.20;;;17.90;34.00;;;;;;4942233;28;20235;-86
2021/05/05 11:45:55;;;;;;;0.70;0.38;;;17.50;34.20;;;;;;4957896;28;20324;-87
2021/05/05 11:48:39;;;;;;;2.25;0.28;;;17.40;33.60;;;;;;4954844;28;20047;-87
2021/05/05 11:51:18;;;;;;;1.05;0.32;;;18.70;32.20;;;;;;4953929;28;20063;-86
2021/05/05 11:53:45;;;;;;;2.65;0.30;;;19.10;32.60;;;;;;4941935;29;20082;-86
2021/05/05 11:56:21;;;;;;;2.95;0.50;;;18.10;33.60;;;;;;4943664;28;20067;-85
2021/05/05 11:58:57;;;;;;;0.50;0.30;;;16.00;36.50;;;;;;4960109;28;20066;-86
2021/05/05 12:01:36;;;;;;;2.03;0.90;;;15.10;42.80;;;;;;4954295;28;20045;-86
2021/05/05 12:04:19;;;;;;;0.68;0.45;;;14.50;43.20;;;;;;4928240;29;20054;-85
2021/05/05 12:07:01;;;;;;;2.25;0.77;;;13.90;44.80;;;;;;4954856;28;20055;-87
2021/05/05 12:09:32;;;;;;;1.95;0.50;;;13.50;45.00;;;;;;4955609;28;20331;-86
2021/05/05 12:12:23;;;;;;;2.03;0.60;;;12.80;48.30;;;;;;4951728;29;20058;-87
2021/05/05 12:14:54;;;;;;;1.15;0.68;;;12.80;50.30;;;;;;4939197;28;20751;-87
2021/05/05 12:17:29;;;;;;;0.65;0.50;;;12.20;51.30;;;;;;4934169;28;20054;-84
2021/05/05 12:20:06;;;;;;;1.58;0.47;;;11.90;53.60;;;;;;4950622;28;20705;-82
2021/05/05 12:22:35;;;;;;;1.58;0.98;;;11.40;55.60;;;;;;4936279;29;20430;-84
2021/05/05 12:25:08;;;;;;;2.08;0.63;;;11.10;56.90;;;;;;4957033;28;20066;-82
2021/05/05 12:27:37;;;;;;;1.10;0.60;;;10.70;58.90;;;;;;4956403;28;20043;-85
2021/05/05 12:30:06;;;;;;;5.45;0.95;;;10.30;61.00;;;;;;4959547;28;20090;-86
2021/05/05 12:32:44;;;;;;;1.60;0.60;;;9.20;79.40;;;;;;4940761;29;20229;-83
2021/05/05 12:35:13;;;;;;;0.82;0.40;;;7.80;85.60;;;;;;4946160;28;20043;-87
2021/05/05 12:37:40;;;;;;;4.47;0.60;;;7.30;87.40;;;;;;4943833;29;20511;-88
2021/05/05 12:40:10;;;;;;;1.15;0.63;;;7.10;86.40;;;;;;4954358;28;20055;-85
2021/05/05 12:42:38;;;;;;;2.03;0.50;;;7.00;88.40;;;;;;4957788;28;20122;-83
2021/05/05 12:45:10;;;;;;;0.77;0.30;;;6.70;86.70;;;;;;4953717;28;20067;-86
2021/05/05 12:47:39;;;;;;;0.35;0.30;;;5.60;89.40;;;;;;4954555;29;20346;-86
2021/05/05 12:50:08;;;;;;;0.93;0.47;;;5.20;91.30;;;;;;4948199;28;20043;-87
2021/05/05 12:52:37;;;;;;;1.20;0.32;;;5.10;92.40;;;;;;4941134;29;20047;-86
2021/05/05 12:55:26;;;;;;;0.20;0.10;;;4.90;92.90;;;;;;4926531;28;20059;-85
2021/05/05 12:58:08;;;;;;;1.45;0.35;;;4.80;92.50;;;;;;4956707;28;20101;-88
2021/05/05 13:00:36;;;;;;;2.10;0.38;;;4.80;93.50;;;;;;4948658;28;20449;-85
2021/05/05 13:03:06;;;;;;;0.20;0.10;;;4.80;93.60;;;;;;4942568;28;20051;-83
2021/05/05 13:05:53;;;;;;;0.45;0.20;;;4.90;94.50;;;;;;4952297;28;20059;-84
2021/05/05 13:08:49;;;;;;;0.40;0.28;;;5.00;91.80;;;;;;4949476;28;20050;-86
2021/05/05 13:11:32;;;;;;;0.05;0.05;;;5.70;94.60;;;;;;4953436;28;20054;-86
2021/05/05 13:14:07;;;;;;;0.77;0.40;;;6.50;91.80;;;;;;4967274;28;20122;-86
2021/05/05 13:16:59;;;;;;;1.50;0.40;;;7.00;91.50;;;;;;4964858;28;20079;-84
2021/05/05 13:31:24;;;;;;;0.73;0.30;;;15.70;67.30;;;;;;4951955;28;20059;-86